Terminal Aerodrome Forecast
Issued by NWS

Current Version | Previous Version | Text Only | Print | Product List | Glossary On
Versions: 1 2 3 4 5 6 7 8 9 10 11 12 13 14 15 16 17 18 19 20 21 22 23 24 25 26 27 28 29 30 31 32 33
000 FTUS41 KBOX 250902 AAA TAFBED TAF AMD KBED 250902Z 2509/2606 22007KT P6SM SCT100 BKN250 FM251800 23011KT P6SM BKN100 FM252100 21012G24KT P6SM BKN100 FM260000 20013KT P6SM BKN140=

USA.gov is the U.S. government's official web portal to all federal, state and local government web resources and services.